sensor_id;sensor_type;location;lat;lon;timestamp;pressure;altitude;pressure_sealevel;temperature;humidity
13050;BME280;6591;51.446;5.404;2023-02-19T00:02:10;101522.81;;;17.65;54.96
13050;BME280;6591;51.446;5.404;2023-02-19T00:04:37;101520.13;;;17.65;54.77
13050;BME280;6591;51.446;5.404;2023-02-19T00:07:04;101521.84;;;17.66;54.90
13050;BME280;6591;51.446;5.404;2023-02-19T00:09:31;101520.91;;;17.67;54.84
13050;BME280;6591;51.446;5.404;2023-02-19T00:11:59;101515.53;;;17.67;54.80
13050;BME280;6591;51.446;5.404;2023-02-19T00:14:26;101511.69;;;17.71;54.74
13050;BME280;6591;51.446;5.404;2023-02-19T00:16:53;101513.41;;;17.72;54.47
13050;BME280;6591;51.446;5.404;2023-02-19T00:19:20;101524.16;;;17.72;54.51
13050;BME280;6591;51.446;5.404;2023-02-19T00:21:51;101517.25;;;17.68;54.53
13050;BME280;6591;51.446;5.404;2023-02-19T00:24:20;101514.84;;;17.64;54.62
13050;BME280;6591;51.446;5.404;2023-02-19T00:26:47;101511.50;;;17.60;54.50
13050;BME280;6591;51.446;5.404;2023-02-19T00:29:19;101512.84;;;17.53;54.58
13050;BME280;6591;51.446;5.404;2023-02-19T00:31:48;101519.25;;;17.51;54.49
13050;BME280;6591;51.446;5.404;2023-02-19T00:34:15;101531.03;;;17.48;54.44
13050;BME280;6591;51.446;5.404;2023-02-19T00:36:42;101511.50;;;17.46;54.71
13050;BME280;6591;51.446;5.404;2023-02-19T00:39:14;101521.56;;;17.43;54.58
13050;BME280;6591;51.446;5.404;2023-02-19T00:41:44;101513.59;;;17.41;54.48
13050;BME280;6591;51.446;5.404;2023-02-19T00:44:13;101513.03;;;17.36;54.52
13050;BME280;6591;51.446;5.404;2023-02-19T00:46:44;101519.16;;;17.38;54.34
13050;BME280;6591;51.446;5.404;2023-02-19T00:49:18;101518.41;;;17.36;54.64
13050;BME280;6591;51.446;5.404;2023-02-19T00:51:45;101518.09;;;17.41;54.35
13050;BME280;6591;51.446;5.404;2023-02-19T00:54:13;101527.09;;;17.40;54.35
13050;BME280;6591;51.446;5.404;2023-02-19T00:56:40;101523.38;;;17.42;54.30
13050;BME280;6591;51.446;5.404;2023-02-19T00:59:08;101518.88;;;17.43;54.42
13050;BME280;6591;51.446;5.404;2023-02-19T01:01:36;101528.47;;;17.47;54.31
13050;BME280;6591;51.446;5.404;2023-02-19T01:04:03;101530.19;;;17.48;54.27
13050;BME280;6591;51.446;5.404;2023-02-19T01:06:32;101532.00;;;17.47;54.03
13050;BME280;6591;51.446;5.404;2023-02-19T01:09:00;101536.22;;;17.51;54.11
13050;BME280;6591;51.446;5.404;2023-02-19T01:11:28;101525.41;;;17.53;54.23
13050;BME280;6591;51.446;5.404;2023-02-19T01:13:59;101532.47;;;17.54;54.07
13050;BME280;6591;51.446;5.404;2023-02-19T01:16:26;101535.84;;;17.57;53.59
13050;BME280;6591;51.446;5.404;2023-02-19T01:18:56;101542.00;;;17.59;53.92
13050;BME280;6591;51.446;5.404;2023-02-19T01:21:26;101530.22;;;17.62;53.57
13050;BME280;6591;51.446;5.404;2023-02-19T01:23:54;101539.13;;;17.62;53.34
13050;BME280;6591;51.446;5.404;2023-02-19T01:26:28;101547.94;;;17.64;53.45
13050;BME280;6591;51.446;5.404;2023-02-19T01:28:57;101552.34;;;17.65;53.67
13050;BME280;6591;51.446;5.404;2023-02-19T01:31:24;101549.66;;;17.65;53.21
13050;BME280;6591;51.446;5.404;2023-02-19T01:34:00;101554.16;;;17.65;53.31
13050;BME280;6591;51.446;5.404;2023-02-19T01:36:31;101555.91;;;17.66;53.20
13050;BME280;6591;51.446;5.404;2023-02-19T01:39:00;101559.47;;;17.66;53.04
13050;BME280;6591;51.446;5.404;2023-02-19T01:41:35;101553.22;;;17.66;53.25
13050;BME280;6591;51.446;5.404;2023-02-19T01:44:56;101557.63;;;17.67;53.20
13050;BME280;6591;51.446;5.404;2023-02-19T01:46:54;101565.69;;;17.67;53.01
13050;BME280;6591;51.446;5.404;2023-02-19T01:49:29;101561.28;;;17.66;52.75
13050;BME280;6591;51.446;5.404;2023-02-19T01:54:29;101569.34;;;17.66;52.58
13050;BME280;6591;51.446;5.404;2023-02-19T01:57:01;101562.16;;;17.66;53.12
13050;BME280;6591;51.446;5.404;2023-02-19T01:59:32;101555.81;;;17.67;52.84
13050;BME280;6591;51.446;5.404;2023-02-19T02:01:59;101563.78;;;17.69;52.80
13050;BME280;6591;51.446;5.404;2023-02-19T02:04:31;101555.03;;;17.65;53.03
13050;BME280;6591;51.446;5.404;2023-02-19T02:07:02;101563.97;;;17.66;52.86
13050;BME280;6591;51.446;5.404;2023-02-19T02:09:51;101559.53;;;17.65;52.78
13050;BME280;6591;51.446;5.404;2023-02-19T02:12:37;101560.72;;;17.61;52.63
13050;BME280;6591;51.446;5.404;2023-02-19T02:15:05;101549.00;;;17.62;52.88
13050;BME280;6591;51.446;5.404;2023-02-19T02:17:59;101549.16;;;17.59;52.50
13050;BME280;6591;51.446;5.404;2023-02-19T02:21:01;101546.75;;;17.54;52.66
13050;BME280;6591;51.446;5.404;2023-02-19T02:27:10;101555.03;;;17.51;52.71
13050;BME280;6591;51.446;5.404;2023-02-19T02:32:59;101561.06;;;17.55;52.79
13050;BME280;6591;51.446;5.404;2023-02-19T02:35:36;101556.53;;;17.55;52.74
13050;BME280;6591;51.446;5.404;2023-02-19T02:38:09;101555.59;;;17.56;52.36
13050;BME280;6591;51.446;5.404;2023-02-19T02:40:41;101557.41;;;17.56;52.47
13050;BME280;6591;51.446;5.404;2023-02-19T02:43:11;101561.06;;;17.55;52.50
13050;BME280;6591;51.446;5.404;2023-02-19T02:45:40;101556.63;;;17.54;52.56
13050;BME280;6591;51.446;5.404;2023-02-19T02:51:28;101565.34;;;17.43;52.32
13050;BME280;6591;51.446;5.404;2023-02-19T02:54:19;101564.22;;;17.33;52.46
13050;BME280;6591;51.446;5.404;2023-02-19T02:57:12;101574.47;;;17.26;52.55
13050;BME280;6591;51.446;5.404;2023-02-19T03:00:08;101580.50;;;17.16;52.66
13050;BME280;6591;51.446;5.404;2023-02-19T03:02:36;101581.16;;;17.05;52.71
13050;BME280;6591;51.446;5.404;2023-02-19T03:05:16;101579.00;;;16.96;52.87
13050;BME280;6591;51.446;5.404;2023-02-19T03:09:18;101579.66;;;16.85;52.94
13050;BME280;6591;51.446;5.404;2023-02-19T03:11:12;101580.19;;;16.76;53.65
13050;BME280;6591;51.446;5.404;2023-02-19T03:14:16;101586.47;;;16.61;53.96
13050;BME280;6591;51.446;5.404;2023-02-19T03:17:17;101592.34;;;16.52;54.54
13050;BME280;6591;51.446;5.404;2023-02-19T03:20:11;101600.72;;;16.46;54.46
13050;BME280;6591;51.446;5.404;2023-02-19T03:22:43;101592.69;;;16.46;54.90
13050;BME280;6591;51.446;5.404;2023-02-19T03:25:26;101595.72;;;16.40;55.12
13050;BME280;6591;51.446;5.404;2023-02-19T03:28:20;101593.97;;;16.39;55.23
13050;BME280;6591;51.446;5.404;2023-02-19T03:31:14;101599.47;;;16.37;55.47
13050;BME280;6591;51.446;5.404;2023-02-19T03:33:47;101601.28;;;16.37;55.39
13050;BME280;6591;51.446;5.404;2023-02-19T03:36:17;101594.19;;;16.36;55.42
13050;BME280;6591;51.446;5.404;2023-02-19T03:39:14;101601.53;;;16.32;55.38
13050;BME280;6591;51.446;5.404;2023-02-19T03:42:05;101595.31;;;16.32;55.34
13050;BME280;6591;51.446;5.404;2023-02-19T03:45:13;101607.06;;;16.29;55.52
13050;BME280;6591;51.446;5.404;2023-02-19T03:47:53;101609.47;;;16.34;55.61
13050;BME280;6591;51.446;5.404;2023-02-19T03:50:49;101603.25;;;16.33;55.54
13050;BME280;6591;51.446;5.404;2023-02-19T03:53:32;101618.31;;;16.36;55.48
13050;BME280;6591;51.446;5.404;2023-02-19T03:56:15;101612.84;;;16.37;55.48
13050;BME280;6591;51.446;5.404;2023-02-19T03:59:02;101626.25;;;16.37;55.39
13050;BME280;6591;51.446;5.404;2023-02-19T04:01:54;101629.97;;;16.35;55.33
13050;BME280;6591;51.446;5.404;2023-02-19T04:04:47;101629.97;;;16.35;55.47
13050;BME280;6591;51.446;5.404;2023-02-19T04:07:16;101644.31;;;16.34;55.47
13050;BME280;6591;51.446;5.404;2023-02-19T04:09:48;101634.56;;;16.33;55.69
13050;BME280;6591;51.446;5.404;2023-02-19T04:12:20;101636.28;;;16.34;56.00
13050;BME280;6591;51.446;5.404;2023-02-19T04:14:56;101646.13;;;16.33;55.44
13050;BME280;6591;51.446;5.404;2023-02-19T04:17:40;101644.41;;;16.32;55.72
13050;BME280;6591;51.446;5.404;2023-02-19T04:20:13;101650.66;;;16.33;55.53
13050;BME280;6591;51.446;5.404;2023-02-19T04:22:40;101654.09;;;16.35;55.57
13050;BME280;6591;51.446;5.404;2023-02-19T04:25:08;101656.78;;;16.35;55.42
13050;BME280;6591;51.446;5.404;2023-02-19T04:27:37;101647.88;;;16.34;55.75
13050;BME280;6591;51.446;5.404;2023-02-19T04:30:09;101654.09;;;16.35;55.73
13050;BME280;6591;51.446;5.404;2023-02-19T04:32:37;101659.31;;;16.38;55.55
13050;BME280;6591;51.446;5.404;2023-02-19T04:35:04;101669.84;;;16.41;55.67
13050;BME280;6591;51.446;5.404;2023-02-19T04:37:32;101672.31;;;16.44;55.73
13050;BME280;6591;51.446;5.404;2023-02-19T04:39:58;101676.66;;;16.46;55.58
13050;BME280;6591;51.446;5.404;2023-02-19T04:42:26;101681.09;;;16.47;55.41
13050;BME280;6591;51.446;5.404;2023-02-19T04:44:53;101679.28;;;16.48;55.21
13050;BME280;6591;51.446;5.404;2023-02-19T04:47:20;101682.81;;;16.48;55.04
13050;BME280;6591;51.446;5.404;2023-02-19T04:49:47;101689.88;;;16.49;55.46
13050;BME280;6591;51.446;5.404;2023-02-19T04:52:14;101693.34;;;16.51;55.64
13050;BME280;6591;51.446;5.404;2023-02-19T04:54:41;101695.25;;;16.49;55.16
13050;BME280;6591;51.446;5.404;2023-02-19T04:57:08;101701.94;;;16.42;55.45
13050;BME280;6591;51.446;5.404;2023-02-19T04:59:35;101706.69;;;16.37;55.40
13050;BME280;6591;51.446;5.404;2023-02-19T05:02:02;101706.06;;;16.32;55.59
13050;BME280;6591;51.446;5.404;2023-02-19T05:04:29;101718.00;;;16.27;55.67
13050;BME280;6591;51.446;5.404;2023-02-19T05:06:57;101719.19;;;16.21;55.98
13050;BME280;6591;51.446;5.404;2023-02-19T05:09:24;101718.66;;;16.15;56.12
13050;BME280;6591;51.446;5.404;2023-02-19T05:11:51;101726.94;;;16.10;56.21
13050;BME280;6591;51.446;5.404;2023-02-19T05:14:18;101723.56;;;16.06;56.48
13050;BME280;6591;51.446;5.404;2023-02-19T05:16:45;101738.94;;;16.03;56.20
13050;BME280;6591;51.446;5.404;2023-02-19T05:19:12;101745.34;;;16.00;56.39
13050;BME280;6591;51.446;5.404;2023-02-19T05:21:39;101741.78;;;16.00;56.60
13050;BME280;6591;51.446;5.404;2023-02-19T05:24:07;101744.53;;;15.98;56.61
13050;BME280;6591;51.446;5.404;2023-02-19T05:26:35;101744.59;;;15.97;56.75
13050;BME280;6591;51.446;5.404;2023-02-19T05:29:02;101742.91;;;15.96;56.90
13050;BME280;6591;51.446;5.404;2023-02-19T05:31:30;101741.22;;;15.93;56.74
13050;BME280;6591;51.446;5.404;2023-02-19T05:33:59;101740.28;;;15.94;56.94
13050;BME280;6591;51.446;5.404;2023-02-19T05:36:26;101747.47;;;15.94;56.93
13050;BME280;6591;51.446;5.404;2023-02-19T05:38:55;101751.09;;;15.93;56.83
13050;BME280;6591;51.446;5.404;2023-02-19T05:41:28;101753.84;;;15.91;56.92
13050;BME280;6591;51.446;5.404;2023-02-19T05:43:56;101744.00;;;15.92;56.78
13050;BME280;6591;51.446;5.404;2023-02-19T05:46:27;101751.25;;;15.90;57.15
13050;BME280;6591;51.446;5.404;2023-02-19T05:48:56;101757.47;;;15.90;56.88
13050;BME280;6591;51.446;5.404;2023-02-19T05:51:26;101756.69;;;15.88;57.06
13050;BME280;6591;51.446;5.404;2023-02-19T05:53:55;101757.72;;;15.86;57.16
13050;BME280;6591;51.446;5.404;2023-02-19T05:59:23;101762.69;;;15.76;57.17
13050;BME280;6591;51.446;5.404;2023-02-19T06:01:53;101763.47;;;15.78;57.04
13050;BME280;6591;51.446;5.404;2023-02-19T06:04:20;101756.38;;;15.77;56.87
13050;BME280;6591;51.446;5.404;2023-02-19T06:06:48;101756.44;;;15.76;56.97
13050;BME280;6591;51.446;5.404;2023-02-19T06:09:15;101749.38;;;15.75;57.32
13050;BME280;6591;51.446;5.404;2023-02-19T06:11:43;101751.25;;;15.73;57.20
13050;BME280;6591;51.446;5.404;2023-02-19T06:14:12;101751.34;;;15.71;57.19
13050;BME280;6591;51.446;5.404;2023-02-19T06:16:40;101754.00;;;15.71;57.19
13050;BME280;6591;51.446;5.404;2023-02-19T06:19:07;101764.72;;;15.71;57.39
13050;BME280;6591;51.446;5.404;2023-02-19T06:21:35;101764.91;;;15.68;57.43
13050;BME280;6591;51.446;5.404;2023-02-19T06:24:06;101768.50;;;15.67;57.25
13050;BME280;6591;51.446;5.404;2023-02-19T06:26:34;101777.50;;;15.66;57.20
13050;BME280;6591;51.446;5.404;2023-02-19T06:29:01;101779.28;;;15.65;57.18
13050;BME280;6591;51.446;5.404;2023-02-19T06:31:28;101781.97;;;15.65;57.08
13050;BME280;6591;51.446;5.404;2023-02-19T06:33:55;101782.94;;;15.64;57.24
13050;BME280;6591;51.446;5.404;2023-02-19T06:36:23;101787.44;;;15.64;57.25
13050;BME280;6591;51.446;5.404;2023-02-19T06:38:50;101792.84;;;15.62;57.09
13050;BME280;6591;51.446;5.404;2023-02-19T06:41:17;101801.81;;;15.61;57.57
13050;BME280;6591;51.446;5.404;2023-02-19T06:43:44;101808.91;;;15.62;57.39
13050;BME280;6591;51.446;5.404;2023-02-19T06:46:12;101810.72;;;15.62;57.29
13050;BME280;6591;51.446;5.404;2023-02-19T06:48:41;101809.78;;;15.63;57.36
13050;BME280;6591;51.446;5.404;2023-02-19T06:51:17;101811.53;;;15.64;57.75
13050;BME280;6591;51.446;5.404;2023-02-19T06:53:45;101819.31;;;15.68;57.38
13050;BME280;6591;51.446;5.404;2023-02-19T06:56:33;101821.19;;;15.66;57.33
13050;BME280;6591;51.446;5.404;2023-02-19T06:59:05;101829.09;;;15.70;57.32
13050;BME280;6591;51.446;5.404;2023-02-19T07:01:34;101823.63;;;15.71;57.21
13050;BME280;6591;51.446;5.404;2023-02-19T07:04:03;101818.28;;;15.71;57.10
13050;BME280;6591;51.446;5.404;2023-02-19T07:06:32;101826.25;;;15.73;57.23
13050;BME280;6591;51.446;5.404;2023-02-19T07:09:00;101835.84;;;15.77;57.23
13050;BME280;6591;51.446;5.404;2023-02-19T07:11:32;101834.97;;;15.76;57.26
13050;BME280;6591;51.446;5.404;2023-02-19T07:14:02;101826.81;;;15.79;57.03
13050;BME280;6591;51.446;5.404;2023-02-19T07:16:29;101840.09;;;15.81;57.04
13050;BME280;6591;51.446;5.404;2023-02-19T07:18:59;101848.06;;;15.82;57.19
13050;BME280;6591;51.446;5.404;2023-02-19T07:21:27;101846.00;;;15.87;56.97
13050;BME280;6591;51.446;5.404;2023-02-19T07:23:55;101843.97;;;15.92;57.02
13050;BME280;6591;51.446;5.404;2023-02-19T07:26:23;101850.13;;;15.94;57.37
13050;BME280;6591;51.446;5.404;2023-02-19T07:28:50;101858.16;;;15.94;56.58
13050;BME280;6591;51.446;5.404;2023-02-19T07:31:21;101863.53;;;15.94;56.72
13050;BME280;6591;51.446;5.404;2023-02-19T07:33:49;101872.50;;;15.93;56.83
13050;BME280;6591;51.446;5.404;2023-02-19T07:36:19;101875.41;;;15.89;57.04
13050;BME280;6591;51.446;5.404;2023-02-19T07:38:46;101885.25;;;15.88;56.79
13050;BME280;6591;51.446;5.404;2023-02-19T07:41:13;101888.22;;;15.82;57.19
13050;BME280;6591;51.446;5.404;2023-02-19T07:43:40;101885.72;;;15.79;56.91
13050;BME280;6591;51.446;5.404;2023-02-19T07:46:11;101885.00;;;15.76;56.88
13050;BME280;6591;51.446;5.404;2023-02-19T07:48:42;101895.88;;;15.73;57.15
13050;BME280;6591;51.446;5.404;2023-02-19T07:51:14;101900.41;;;15.71;57.24
13050;BME280;6591;51.446;5.404;2023-02-19T07:53:47;101907.63;;;15.70;57.17
13050;BME280;6591;51.446;5.404;2023-02-19T07:56:17;101916.50;;;15.71;57.49
13050;BME280;6591;51.446;5.404;2023-02-19T07:58:44;101915.78;;;15.67;57.38
13050;BME280;6591;51.446;5.404;2023-02-19T08:01:19;101925.69;;;15.65;57.25
13050;BME280;6591;51.446;5.404;2023-02-19T08:04:21;101936.41;;;15.65;57.75
13050;BME280;6591;51.446;5.404;2023-02-19T08:06:48;101943.59;;;15.64;57.75
13050;BME280;6591;51.446;5.404;2023-02-19T08:09:15;101942.72;;;15.64;57.77
13050;BME280;6591;51.446;5.404;2023-02-19T08:11:42;101939.25;;;15.62;57.84
13050;BME280;6591;51.446;5.404;2023-02-19T08:14:28;101957.09;;;15.61;58.04
13050;BME280;6591;51.446;5.404;2023-02-19T08:16:55;101954.38;;;15.63;58.16
13050;BME280;6591;51.446;5.404;2023-02-19T08:19:22;101955.06;;;15.66;58.50
13050;BME280;6591;51.446;5.404;2023-02-19T08:21:50;101950.59;;;15.67;58.21
13050;BME280;6591;51.446;5.404;2023-02-19T08:24:17;101953.13;;;15.70;58.39
13050;BME280;6591;51.446;5.404;2023-02-19T08:26:44;101958.25;;;15.75;58.34
13050;BME280;6591;51.446;5.404;2023-02-19T08:29:11;101962.53;;;15.79;58.18
13050;BME280;6591;51.446;5.404;2023-02-19T08:31:38;101967.88;;;15.79;58.28
13050;BME280;6591;51.446;5.404;2023-02-19T08:34:05;101973.94;;;15.82;58.39
13050;BME280;6591;51.446;5.404;2023-02-19T08:36:32;101978.44;;;15.82;58.20
13050;BME280;6591;51.446;5.404;2023-02-19T08:38:59;101978.38;;;15.83;58.07
13050;BME280;6591;51.446;5.404;2023-02-19T08:41:26;101980.09;;;15.84;57.95
13050;BME280;6591;51.446;5.404;2023-02-19T08:43:54;101978.19;;;15.86;58.07
13050;BME280;6591;51.446;5.404;2023-02-19T08:46:20;101969.38;;;15.84;58.45
13050;BME280;6591;51.446;5.404;2023-02-19T08:48:48;101974.59;;;15.87;58.41
13050;BME280;6591;51.446;5.404;2023-02-19T08:51:15;101970.09;;;15.88;58.44
13050;BME280;6591;51.446;5.404;2023-02-19T08:53:43;101987.75;;;15.92;58.26
13050;BME280;6591;51.446;5.404;2023-02-19T08:56:15;101988.56;;;15.94;58.34
13050;BME280;6591;51.446;5.404;2023-02-19T08:58:43;101975.88;;;15.97;58.33
13050;BME280;6591;51.446;5.404;2023-02-19T09:01:14;101991.81;;;16.00;58.32
13050;BME280;6591;51.446;5.404;2023-02-19T09:03:42;101992.56;;;16.02;58.27
13050;BME280;6591;51.446;5.404;2023-02-19T09:06:18;101993.53;;;16.01;58.02
13050;BME280;6591;51.446;5.404;2023-02-19T09:08:45;102011.25;;;16.04;58.09
13050;BME280;6591;51.446;5.404;2023-02-19T09:11:13;102007.66;;;16.05;58.16
13050;BME280;6591;51.446;5.404;2023-02-19T09:13:41;102004.91;;;16.06;58.06
13050;BME280;6591;51.446;5.404;2023-02-19T09:16:09;102007.47;;;16.08;58.14
13050;BME280;6591;51.446;5.404;2023-02-19T09:18:37;102013.59;;;16.12;58.21
13050;BME280;6591;51.446;5.404;2023-02-19T09:21:05;102005.44;;;16.13;58.15
13050;BME280;6591;51.446;5.404;2023-02-19T09:23:35;101998.22;;;16.15;58.23
13050;BME280;6591;51.446;5.404;2023-02-19T09:26:04;101996.41;;;16.16;58.10
13050;BME280;6591;51.446;5.404;2023-02-19T09:28:33;101998.91;;;16.19;58.22
13050;BME280;6591;51.446;5.404;2023-02-19T09:31:06;101999.72;;;16.21;58.25
13050;BME280;6591;51.446;5.404;2023-02-19T09:33:34;102000.34;;;16.26;58.24
13050;BME280;6591;51.446;5.404;2023-02-19T09:36:03;102002.88;;;16.29;57.98
13050;BME280;6591;51.446;5.404;2023-02-19T09:38:30;102008.09;;;16.32;58.23
13050;BME280;6591;51.446;5.404;2023-02-19T09:40:58;102016.91;;;16.34;58.21
13050;BME280;6591;51.446;5.404;2023-02-19T09:43:32;102022.91;;;16.39;58.18
13050;BME280;6591;51.446;5.404;2023-02-19T09:49:03;102020.53;;;16.50;57.94
13050;BME280;6591;51.446;5.404;2023-02-19T09:51:36;102015.81;;;16.55;57.85
13050;BME280;6591;51.446;5.404;2023-02-19T09:54:23;102022.78;;;16.59;57.78
13050;BME280;6591;51.446;5.404;2023-02-19T09:56:54;102036.84;;;16.64;57.75
13050;BME280;6591;51.446;5.404;2023-02-19T09:59:41;102049.16;;;16.68;57.49
13050;BME280;6591;51.446;5.404;2023-02-19T10:02:22;102048.84;;;16.74;57.36
13050;BME280;6591;51.446;5.404;2023-02-19T10:04:52;102059.09;;;16.83;57.27
13050;BME280;6591;51.446;5.404;2023-02-19T10:07:27;102060.47;;;16.90;56.95
13050;BME280;6591;51.446;5.404;2023-02-19T10:10:19;102059.22;;;16.98;57.26
13050;BME280;6591;51.446;5.404;2023-02-19T10:12:53;102064.19;;;17.05;56.87
13050;BME280;6591;51.446;5.404;2023-02-19T10:15:32;102087.94;;;17.13;56.76
13050;BME280;6591;51.446;5.404;2023-02-19T10:18:03;102078.63;;;17.20;56.40
13050;BME280;6591;51.446;5.404;2023-02-19T10:20:31;102065.03;;;17.23;55.75
13050;BME280;6591;51.446;5.404;2023-02-19T10:23:09;102073.06;;;17.23;55.95
13050;BME280;6591;51.446;5.404;2023-02-19T10:25:57;102080.25;;;17.22;55.98
13050;BME280;6591;51.446;5.404;2023-02-19T10:28:32;102082.00;;;17.23;56.11
13050;BME280;6591;51.446;5.404;2023-02-19T10:31:03;102088.16;;;17.25;56.33
13050;BME280;6591;51.446;5.404;2023-02-19T10:33:31;102087.13;;;17.28;56.39
13050;BME280;6591;51.446;5.404;2023-02-19T10:36:05;102093.28;;;17.30;56.42
13050;BME280;6591;51.446;5.404;2023-02-19T10:38:44;102100.28;;;17.32;56.26
13050;BME280;6591;51.446;5.404;2023-02-19T10:41:17;102125.19;;;17.36;56.31
13050;BME280;6591;51.446;5.404;2023-02-19T10:44:03;102127.06;;;17.34;56.31
13050;BME280;6591;51.446;5.404;2023-02-19T10:46:41;102131.50;;;17.35;55.94
13050;BME280;6591;51.446;5.404;2023-02-19T10:49:33;102138.94;;;17.30;55.49
13050;BME280;6591;51.446;5.404;2023-02-19T10:54:55;102142.34;;;17.16;55.15
13050;BME280;6591;51.446;5.404;2023-02-19T10:57:27;102156.31;;;17.06;54.88
13050;BME280;6591;51.446;5.404;2023-02-19T11:00:25;102157.81;;;16.94;55.33
13050;BME280;6591;51.446;5.404;2023-02-19T11:03:20;102150.13;;;16.86;55.90
13050;BME280;6591;51.446;5.404;2023-02-19T11:06:04;102145.88;;;16.82;55.80
13050;BME280;6591;51.446;5.404;2023-02-19T11:08:57;102147.69;;;16.82;56.42
13050;BME280;6591;51.446;5.404;2023-02-19T11:11:33;102140.97;;;16.90;56.60
13050;BME280;6591;51.446;5.404;2023-02-19T11:14:23;102139.78;;;16.96;56.68
13050;BME280;6591;51.446;5.404;2023-02-19T11:16:54;102143.69;;;17.08;56.60
13050;BME280;6591;51.446;5.404;2023-02-19T11:19:38;102136.88;;;17.18;56.58
13050;BME280;6591;51.446;5.404;2023-02-19T11:22:31;102144.47;;;17.27;56.57
13050;BME280;6591;51.446;5.404;2023-02-19T11:25:04;102133.00;;;17.41;56.40
13050;BME280;6591;51.446;5.404;2023-02-19T11:27:32;102130.38;;;17.56;56.51
13050;BME280;6591;51.446;5.404;2023-02-19T11:35:46;102122.41;;;17.88;55.59
13050;BME280;6591;51.446;5.404;2023-02-19T11:38:17;102120.25;;;17.94;55.14
13050;BME280;6591;51.446;5.404;2023-02-19T11:43:52;102125.97;;;18.04;54.80
13050;BME280;6591;51.446;5.404;2023-02-19T11:46:39;102123.97;;;18.07;54.35
13050;BME280;6591;51.446;5.404;2023-02-19T11:55:40;102125.44;;;18.13;53.42
13050;BME280;6591;51.446;5.404;2023-02-19T11:57:49;102119.19;;;18.12;52.92
13050;BME280;6591;51.446;5.404;2023-02-19T12:00:29;102110.28;;;18.12;52.73
13050;BME280;6591;51.446;5.404;2023-02-19T12:03:25;102122.84;;;18.11;52.38
13050;BME280;6591;51.446;5.404;2023-02-19T12:12:43;102118.19;;;18.15;52.02
13050;BME280;6591;51.446;5.404;2023-02-19T12:36:22;102107.84;;;18.39;52.04
13050;BME280;6591;51.446;5.404;2023-02-19T12:39:09;102116.78;;;18.39;52.75
13050;BME280;6591;51.446;5.404;2023-02-19T12:44:57;102121.63;;;18.48;52.40
13050;BME280;6591;51.446;5.404;2023-02-19T12:47:38;102123.13;;;18.54;52.68
13050;BME280;6591;51.446;5.404;2023-02-19T12:50:24;102122.16;;;18.55;52.33
13050;BME280;6591;51.446;5.404;2023-02-19T12:53:31;102138.47;;;18.52;52.04
13050;BME280;6591;51.446;5.404;2023-02-19T12:56:22;102126.03;;;18.49;50.68
13050;BME280;6591;51.446;5.404;2023-02-19T12:59:02;102129.00;;;18.45;50.76
13050;BME280;6591;51.446;5.404;2023-02-19T13:01:46;102136.81;;;18.34;49.15
13050;BME280;6591;51.446;5.404;2023-02-19T13:04:46;102124.31;;;18.33;49.27
13050;BME280;6591;51.446;5.404;2023-02-19T13:07:27;102129.00;;;18.29;48.86
13050;BME280;6591;51.446;5.404;2023-02-19T13:13:29;102148.09;;;18.40;49.02
13050;BME280;6591;51.446;5.404;2023-02-19T13:16:13;102149.31;;;18.50;49.19
13050;BME280;6591;51.446;5.404;2023-02-19T13:18:52;102141.53;;;18.61;48.97
13050;BME280;6591;51.446;5.404;2023-02-19T13:21:24;102148.25;;;18.69;48.17
13050;BME280;6591;51.446;5.404;2023-02-19T13:24:37;102157.47;;;18.65;48.15
13050;BME280;6591;51.446;5.404;2023-02-19T13:30:44;102158.31;;;18.49;46.85
13050;BME280;6591;51.446;5.404;2023-02-19T13:36:08;102163.28;;;18.41;47.68
13050;BME280;6591;51.446;5.404;2023-02-19T13:38:42;102165.00;;;18.42;48.12
13050;BME280;6591;51.446;5.404;2023-02-19T13:41:47;102171.34;;;18.41;48.08
13050;BME280;6591;51.446;5.404;2023-02-19T13:44:23;102172.72;;;18.48;48.30
13050;BME280;6591;51.446;5.404;2023-02-19T13:46:52;102174.47;;;18.49;48.19
13050;BME280;6591;51.446;5.404;2023-02-19T13:55:45;102200.72;;;18.13;47.80
13050;BME280;6591;51.446;5.404;2023-02-19T14:01:05;102239.53;;;17.92;47.09
13050;BME280;6591;51.446;5.404;2023-02-19T14:06:06;102229.78;;;17.73;47.28
13050;BME280;6591;51.446;5.404;2023-02-19T14:08:56;102226.13;;;17.57;47.00
13050;BME280;6591;51.446;5.404;2023-02-19T14:28:46;102245.66;;;16.53;48.26
13050;BME280;6591;51.446;5.404;2023-02-19T14:31:28;102244.03;;;16.49;48.36
13050;BME280;6591;51.446;5.404;2023-02-19T14:34:24;102250.72;;;16.40;48.70
13050;BME280;6591;51.446;5.404;2023-02-19T14:36:57;102255.13;;;16.41;48.97
13050;BME280;6591;51.446;5.404;2023-02-19T14:39:34;102246.38;;;16.38;49.21
13050;BME280;6591;51.446;5.404;2023-02-19T14:42:16;102247.59;;;16.31;49.33
13050;BME280;6591;51.446;5.404;2023-02-19T14:44:51;102241.38;;;16.30;49.16
13050;BME280;6591;51.446;5.404;2023-02-19T14:47:23;102239.63;;;16.29;49.55
13050;BME280;6591;51.446;5.404;2023-02-19T14:49:54;102237.88;;;16.28;49.67
13050;BME280;6591;51.446;5.404;2023-02-19T14:52:33;102233.53;;;16.26;49.41
13050;BME280;6591;51.446;5.404;2023-02-19T14:55:16;102239.13;;;16.21;49.66
13050;BME280;6591;51.446;5.404;2023-02-19T14:57:49;102232.06;;;16.19;49.58
13050;BME280;6591;51.446;5.404;2023-02-19T15:00:35;102238.53;;;16.15;49.71
13050;BME280;6591;51.446;5.404;2023-02-19T15:03:04;102239.50;;;16.12;49.79
13050;BME280;6591;51.446;5.404;2023-02-19T15:05:35;102224.31;;;16.13;49.89
13050;BME280;6591;51.446;5.404;2023-02-19T15:08:08;102229.66;;;16.13;50.16
13050;BME280;6591;51.446;5.404;2023-02-19T15:10:40;102233.16;;;16.15;50.08
13050;BME280;6591;51.446;5.404;2023-02-19T15:13:10;102219.75;;;16.15;50.11
13050;BME280;6591;51.446;5.404;2023-02-19T15:15:45;102224.19;;;16.16;50.20
13050;BME280;6591;51.446;5.404;2023-02-19T15:18:22;102215.28;;;16.15;50.02
13050;BME280;6591;51.446;5.404;2023-02-19T15:21:03;102201.94;;;16.14;49.93
13050;BME280;6591;51.446;5.404;2023-02-19T15:23:32;102205.28;;;16.19;50.15